createdAt,value
2023-02-02T00:01:35.670Z,4.38
2023-02-02T00:04:04.744Z,4.54
2023-02-02T00:06:33.905Z,4.50
2023-02-02T00:09:05.421Z,4.50
2023-02-02T00:11:34.034Z,4.60
2023-02-02T00:14:02.447Z,4.55
2023-02-02T00:16:42.820Z,4.43
2023-02-02T00:19:14.525Z,4.47
2023-02-02T00:21:44.570Z,4.43
2023-02-02T00:24:18.830Z,4.49
2023-02-02T00:26:53.222Z,4.54
2023-02-02T00:29:26.336Z,4.61
2023-02-02T00:31:54.943Z,4.52
2023-02-02T00:34:23.647Z,4.58
2023-02-02T00:36:52.570Z,4.53
2023-02-02T00:39:25.725Z,4.55
2023-02-02T00:41:54.244Z,4.50
2023-02-02T00:44:40.239Z,4.48
2023-02-02T00:47:08.555Z,4.57
2023-02-02T00:49:36.998Z,4.51
2023-02-02T00:52:06.487Z,4.55
2023-02-02T00:54:36.393Z,4.57
2023-02-02T00:57:04.770Z,4.57
2023-02-02T00:59:33.139Z,4.55
2023-02-02T01:02:02.259Z,4.53
2023-02-02T01:04:30.802Z,4.52
2023-02-02T01:06:59.111Z,4.53
2023-02-02T01:09:27.702Z,4.58
2023-02-02T01:11:57.470Z,4.61
2023-02-02T01:14:27.419Z,4.66
2023-02-02T01:16:55.642Z,4.59
2023-02-02T01:19:24.302Z,4.70
2023-02-02T01:21:53.967Z,4.64
2023-02-02T01:24:22.196Z,4.49
2023-02-02T01:26:52.017Z,4.59
2023-02-02T01:29:22.093Z,4.51
2023-02-02T01:31:50.964Z,4.47
2023-02-02T01:34:19.690Z,4.47
2023-02-02T01:36:53.015Z,4.45
2023-02-02T01:39:21.480Z,4.50
2023-02-02T01:41:50.242Z,4.42
2023-02-02T01:45:07.266Z,4.49
2023-02-02T01:47:41.978Z,4.65
2023-02-02T01:50:13.763Z,4.54
2023-02-02T01:52:45.061Z,4.67
2023-02-02T01:55:17.555Z,4.62
2023-02-02T01:57:48.129Z,4.53
2023-02-02T02:00:18.598Z,4.65
2023-02-02T02:02:50.313Z,4.67
2023-02-02T02:05:33.684Z,4.58
2023-02-02T02:08:09.968Z,4.43
2023-02-02T02:10:38.448Z,4.25
2023-02-02T02:13:07.522Z,4.26
2023-02-02T02:16:02.508Z,4.53
2023-02-02T02:18:42.493Z,4.74
2023-02-02T02:22:14.048Z,4.82
2023-02-02T02:25:22.945Z,4.82
2023-02-02T02:28:24.708Z,4.94
2023-02-02T02:31:12.599Z,4.89
2023-02-02T02:33:48.918Z,5.01
2023-02-02T02:36:23.783Z,5.04
2023-02-02T02:38:58.893Z,4.97
2023-02-02T02:41:32.943Z,4.86
2023-02-02T02:44:06.767Z,4.95
2023-02-02T02:46:35.697Z,4.72
2023-02-02T02:49:05.925Z,4.57
2023-02-02T02:51:49.055Z,4.64
2023-02-02T02:54:21.069Z,4.47
2023-02-02T02:57:12.200Z,4.63
2023-02-02T02:59:49.732Z,4.69
2023-02-02T03:02:38.489Z,4.79
2023-02-02T03:05:22.847Z,4.75
2023-02-02T03:07:58.002Z,4.74
2023-02-02T03:10:30.951Z,4.50
2023-02-02T03:12:59.758Z,4.66
2023-02-02T03:15:27.835Z,4.85
2023-02-02T03:17:56.660Z,4.94
2023-02-02T03:20:26.388Z,4.83
2023-02-02T03:22:54.769Z,4.93
2023-02-02T03:25:24.042Z,4.78
2023-02-02T03:27:52.840Z,4.84
2023-02-02T03:30:21.412Z,4.93
2023-02-02T03:32:51.457Z,4.90
2023-02-02T03:35:21.214Z,4.91
2023-02-02T03:37:50.921Z,4.89
2023-02-02T03:40:20.009Z,4.76
2023-02-02T03:42:48.381Z,4.93
2023-02-02T03:45:16.767Z,4.78
2023-02-02T03:47:45.195Z,4.79
2023-02-02T03:50:13.512Z,4.83
2023-02-02T03:52:41.981Z,4.79
2023-02-02T03:55:11.779Z,4.86
2023-02-02T03:57:40.268Z,4.96
2023-02-02T04:00:10.203Z,5.06
2023-02-02T04:02:38.242Z,4.97
2023-02-02T04:05:07.685Z,4.98
2023-02-02T04:07:36.103Z,5.01
2023-02-02T04:10:04.550Z,5.00
2023-02-02T04:12:34.441Z,5.07
2023-02-02T04:15:02.933Z,4.97
2023-02-02T04:17:31.154Z,4.92
2023-02-02T04:19:59.687Z,4.87
2023-02-02T04:22:28.319Z,5.03
2023-02-02T04:24:56.753Z,5.07
2023-02-02T04:27:25.648Z,5.12
2023-02-02T04:29:56.737Z,5.16
2023-02-02T04:32:25.275Z,5.18
2023-02-02T04:34:53.600Z,5.09
2023-02-02T04:37:21.910Z,5.11
2023-02-02T04:39:50.947Z,5.07
2023-02-02T04:42:25.189Z,5.03
2023-02-02T04:44:55.291Z,5.17
2023-02-02T04:47:24.248Z,5.23
2023-02-02T04:49:52.561Z,5.26
2023-02-02T04:52:20.900Z,5.30
2023-02-02T04:54:49.475Z,5.33
2023-02-02T04:57:18.294Z,5.38
2023-02-02T04:59:46.728Z,5.27
2023-02-02T05:02:17.124Z,5.25
2023-02-02T05:04:45.746Z,5.23
2023-02-02T05:07:14.155Z,5.20
2023-02-02T05:09:42.492Z,5.31
2023-02-02T05:12:11.140Z,5.31
2023-02-02T05:14:39.717Z,5.26
2023-02-02T05:17:07.824Z,4.87
2023-02-02T05:19:37.851Z,4.86
2023-02-02T05:22:06.000Z,4.98
2023-02-02T05:24:34.397Z,5.14
2023-02-02T05:27:05.777Z,5.05
2023-02-02T05:29:34.212Z,5.14
2023-02-02T05:32:03.867Z,5.16
2023-02-02T05:34:32.090Z,5.22
2023-02-02T05:37:01.901Z,5.22
2023-02-02T05:39:30.142Z,5.21
2023-02-02T05:41:58.319Z,5.06
2023-02-02T05:44:26.512Z,4.96
2023-02-02T05:46:54.890Z,4.86
2023-02-02T05:49:24.569Z,4.89
2023-02-02T05:51:55.784Z,5.02
2023-02-02T05:54:26.206Z,4.91
2023-02-02T05:56:57.134Z,4.99
2023-02-02T05:59:25.820Z,4.98
2023-02-02T06:01:54.588Z,5.02
2023-02-02T06:04:22.923Z,5.14
2023-02-02T06:06:51.421Z,5.25
2023-02-02T06:09:22.350Z,5.19
2023-02-02T06:11:52.615Z,5.23
2023-02-02T06:14:21.632Z,5.11
2023-02-02T06:16:50.074Z,5.23
2023-02-02T06:19:18.636Z,5.29
2023-02-02T06:21:47.017Z,5.22
2023-02-02T06:24:17.783Z,5.12
2023-02-02T06:26:46.240Z,5.20
2023-02-02T06:29:16.093Z,5.23
2023-02-02T06:31:44.841Z,5.35
2023-02-02T06:34:15.538Z,5.31
2023-02-02T06:36:44.053Z,5.39
2023-02-02T06:39:13.262Z,5.46
2023-02-02T06:41:42.092Z,5.51
2023-02-02T06:44:12.366Z,5.51
2023-02-02T06:46:42.299Z,5.44
2023-02-02T06:49:10.890Z,5.31
2023-02-02T06:51:40.544Z,5.22
2023-02-02T06:54:09.840Z,5.16
2023-02-02T06:56:38.045Z,5.23
2023-02-02T06:59:07.918Z,5.10
2023-02-02T07:01:36.212Z,5.16
2023-02-02T07:04:06.493Z,5.23
2023-02-02T07:06:35.405Z,5.08
2023-02-02T07:09:03.675Z,5.14
2023-02-02T07:11:37.251Z,5.18
2023-02-02T07:14:06.494Z,5.15
2023-02-02T07:16:34.946Z,5.23
2023-02-02T07:19:03.306Z,5.26
2023-02-02T07:21:36.518Z,5.34
2023-02-02T07:24:05.695Z,5.56
2023-02-02T07:26:36.148Z,5.47
2023-02-02T07:29:04.771Z,5.51
2023-02-02T07:31:36.078Z,5.60
2023-02-02T07:34:06.252Z,5.79
2023-02-02T07:36:36.120Z,5.92
2023-02-02T07:39:05.992Z,6.15
2023-02-02T07:41:36.441Z,6.12
2023-02-02T07:44:08.038Z,6.16
2023-02-02T07:46:37.057Z,6.26
2023-02-02T07:49:06.813Z,6.37
2023-02-02T07:51:38.118Z,6.57
2023-02-02T07:54:08.855Z,6.45
2023-02-02T07:56:39.253Z,6.57
2023-02-02T07:59:07.566Z,6.53
2023-02-02T08:01:35.951Z,6.62
2023-02-02T08:04:04.875Z,6.61
2023-02-02T08:06:35.302Z,6.76
2023-02-02T08:09:08.045Z,6.79
2023-02-02T08:11:38.018Z,6.87
2023-02-02T08:14:07.822Z,6.85
2023-02-02T08:16:36.152Z,6.75
2023-02-02T08:19:04.547Z,6.84
2023-02-02T08:21:35.321Z,6.87
2023-02-02T08:24:06.140Z,6.83
2023-02-02T08:26:34.528Z,6.86
2023-02-02T08:29:07.225Z,6.85
2023-02-02T08:31:37.607Z,6.85
2023-02-02T08:34:06.611Z,6.85
2023-02-02T08:36:35.693Z,6.79
2023-02-02T08:39:07.542Z,6.99
2023-02-02T08:41:38.024Z,6.82
2023-02-02T08:44:11.217Z,6.95
2023-02-02T08:46:40.236Z,7.02
2023-02-02T08:49:11.613Z,7.00
2023-02-02T08:51:39.815Z,6.99
2023-02-02T08:54:09.740Z,7.07
2023-02-02T08:56:37.791Z,6.86
2023-02-02T08:59:10.300Z,7.02
2023-02-02T09:01:39.885Z,7.07
2023-02-02T09:04:09.879Z,7.06
2023-02-02T09:06:40.550Z,7.05
2023-02-02T09:09:12.810Z,7.00
2023-02-02T09:11:41.777Z,7.09
2023-02-02T09:14:12.147Z,6.93
2023-02-02T09:16:40.770Z,6.94
2023-02-02T09:19:09.184Z,6.91
2023-02-02T09:21:37.706Z,7.06
2023-02-02T09:24:13.269Z,7.10
2023-02-02T09:26:42.309Z,7.11
2023-02-02T09:29:14.548Z,7.12
2023-02-02T09:31:43.490Z,7.16
2023-02-02T09:34:13.212Z,7.18
2023-02-02T09:36:42.934Z,7.08
2023-02-02T09:39:15.259Z,7.16
2023-02-02T09:42:08.524Z,7.20
2023-02-02T09:44:55.938Z,7.28
2023-02-02T09:47:27.188Z,7.27
2023-02-02T09:50:02.149Z,7.32
2023-02-02T09:52:35.201Z,7.32
2023-02-02T09:55:12.703Z,7.32
2023-02-02T09:57:47.266Z,7.33
2023-02-02T10:00:27.116Z,7.21
2023-02-02T10:03:03.609Z,7.20
2023-02-02T10:05:48.235Z,7.30
2023-02-02T10:08:34.262Z,7.21
2023-02-02T10:11:22.917Z,7.13
2023-02-02T10:13:57.932Z,7.28
2023-02-02T10:16:40.564Z,7.35
2023-02-02T10:19:13.924Z,7.31
2023-02-02T10:21:48.441Z,7.37
2023-02-02T10:24:21.519Z,7.33
2023-02-02T10:26:54.832Z,7.33
2023-02-02T10:29:47.965Z,7.38
2023-02-02T10:32:24.865Z,7.28
2023-02-02T10:35:23.119Z,7.49
2023-02-02T10:37:58.564Z,7.39
2023-02-02T10:40:41.380Z,7.41
2023-02-02T10:43:50.661Z,7.46
2023-02-02T10:46:26.623Z,7.46
2023-02-02T10:49:13.881Z,7.45
2023-02-02T10:51:42.767Z,7.39
2023-02-02T10:54:29.972Z,7.40
2023-02-02T10:57:03.264Z,7.42
2023-02-02T10:59:38.166Z,7.42
2023-02-02T11:02:20.676Z,7.51
2023-02-02T11:05:07.129Z,7.55
2023-02-02T11:07:35.233Z,7.69
2023-02-02T11:10:04.190Z,7.64
2023-02-02T11:12:34.469Z,7.68
2023-02-02T11:15:09.476Z,7.64
2023-02-02T11:17:38.616Z,7.68
2023-02-02T11:20:24.961Z,7.63
2023-02-02T11:23:03.231Z,7.71
2023-02-02T11:25:35.112Z,7.60
2023-02-02T11:28:19.103Z,7.59
2023-02-02T11:30:52.884Z,7.73
2023-02-02T11:33:28.560Z,7.82
2023-02-02T11:35:58.605Z,7.81
2023-02-02T11:38:27.637Z,7.83
2023-02-02T11:41:01.146Z,7.83
2023-02-02T11:43:31.974Z,7.87
2023-02-02T11:46:04.621Z,7.86
2023-02-02T11:48:37.376Z,7.90
2023-02-02T11:51:07.804Z,7.85
2023-02-02T11:53:39.462Z,7.87
2023-02-02T11:56:19.426Z,7.82
2023-02-02T11:58:50.110Z,7.87
2023-02-02T12:01:27.239Z,7.85
2023-02-02T12:03:58.078Z,7.91
2023-02-02T12:06:27.650Z,7.93
2023-02-02T12:09:01.559Z,7.91
2023-02-02T12:11:41.313Z,7.89
2023-02-02T12:14:23.613Z,7.87
2023-02-02T12:17:07.408Z,7.77
2023-02-02T12:20:16.280Z,7.86
2023-02-02T12:23:00.773Z,7.72
2023-02-02T12:25:47.071Z,7.83
2023-02-02T12:28:24.962Z,7.88
2023-02-02T12:31:01.369Z,7.77
2023-02-02T12:33:40.853Z,7.87
2023-02-02T12:36:24.838Z,7.85
2023-02-02T12:39:21.796Z,7.85
2023-02-02T12:42:22.470Z,7.91
2023-02-02T12:45:13.628Z,7.92
2023-02-02T12:47:54.820Z,7.89
2023-02-02T12:50:33.032Z,7.90
2023-02-02T12:53:19.389Z,7.84
2023-02-02T12:55:53.822Z,7.91
2023-02-02T12:58:32.787Z,7.92
2023-02-02T13:01:18.364Z,8.02
2023-02-02T13:04:13.874Z,8.02
2023-02-02T13:07:13.012Z,8.06
2023-02-02T13:09:50.021Z,8.07
2023-02-02T13:12:23.053Z,8.06
2023-02-02T13:14:58.492Z,8.02
2023-02-02T13:17:31.583Z,8.06
2023-02-02T13:20:04.886Z,8.09
2023-02-02T13:22:38.939Z,8.04
2023-02-02T13:25:11.732Z,8.11
2023-02-02T13:27:41.750Z,8.13
2023-02-02T13:30:21.726Z,8.04
2023-02-02T13:32:55.463Z,8.04
2023-02-02T13:35:28.969Z,8.02
2023-02-02T13:38:11.085Z,8.06
2023-02-02T13:40:41.219Z,7.98
2023-02-02T13:43:23.143Z,7.97
2023-02-02T13:46:03.007Z,7.97
2023-02-02T13:48:41.624Z,7.94
2023-02-02T13:51:53.889Z,7.93
2023-02-02T13:55:03.811Z,7.90
2023-02-02T14:00:40.666Z,7.89
2023-02-02T14:03:38.891Z,7.96
2023-02-02T14:06:14.663Z,7.98
2023-02-02T14:08:50.772Z,7.94
2023-02-02T14:11:28.043Z,7.93
2023-02-02T14:14:18.670Z,7.98
2023-02-02T14:16:52.481Z,7.97
2023-02-02T14:20:03.142Z,8.02
2023-02-02T14:22:43.855Z,7.99
2023-02-02T14:25:55.515Z,7.98
2023-02-02T14:28:44.773Z,8.00
2023-02-02T14:31:49.356Z,8.01
2023-02-02T14:34:30.812Z,8.04
2023-02-02T14:37:29.687Z,8.03
2023-02-02T14:40:04.732Z,8.04
2023-02-02T14:43:05.419Z,8.03
2023-02-02T14:45:35.395Z,8.05
2023-02-02T14:48:11.434Z,8.08
2023-02-02T14:50:51.104Z,8.10
2023-02-02T14:53:27.443Z,8.10
2023-02-02T14:56:12.154Z,8.17
2023-02-02T14:58:46.126Z,8.12
2023-02-02T15:01:25.259Z,8.11
2023-02-02T15:03:56.871Z,8.15
2023-02-02T15:06:32.236Z,8.16
2023-02-02T15:09:38.358Z,8.16
2023-02-02T15:12:31.337Z,8.19
2023-02-02T15:15:10.800Z,8.20
2023-02-02T15:17:50.305Z,8.16
2023-02-02T15:20:24.306Z,8.24
2023-02-02T15:23:00.462Z,8.23
2023-02-02T15:25:33.421Z,8.08
2023-02-02T15:28:09.612Z,8.13
2023-02-02T15:30:45.244Z,8.07
2023-02-02T15:33:24.865Z,8.13
2023-02-02T15:35:55.072Z,8.11
2023-02-02T15:38:32.830Z,8.07
2023-02-02T15:41:06.075Z,8.11
2023-02-02T15:43:36.501Z,8.10
2023-02-02T15:46:09.768Z,8.06
2023-02-02T15:48:38.613Z,8.00
2023-02-02T15:51:22.174Z,7.90
2023-02-02T15:53:55.156Z,7.89
2023-02-02T15:56:32.387Z,7.87
2023-02-02T15:59:02.014Z,7.83
2023-02-02T16:01:35.968Z,7.87
2023-02-02T16:04:21.704Z,7.80
2023-02-02T16:06:52.359Z,7.94
2023-02-02T16:09:28.819Z,7.93
2023-02-02T16:11:59.268Z,7.80
2023-02-02T16:14:29.547Z,7.85
2023-02-02T16:17:13.593Z,7.91
2023-02-02T16:19:49.043Z,7.86
2023-02-02T16:22:23.184Z,7.88
2023-02-02T16:24:56.352Z,7.87
2023-02-02T16:27:31.059Z,7.83
2023-02-02T16:30:03.061Z,7.79
2023-02-02T16:32:33.511Z,7.75
2023-02-02T16:35:04.897Z,7.67
2023-02-02T16:37:37.734Z,7.75
2023-02-02T16:40:30.417Z,7.87
2023-02-02T16:43:07.240Z,7.79
2023-02-02T16:45:37.722Z,7.68
2023-02-02T16:48:37.245Z,7.79
2023-02-02T16:51:26.678Z,7.82
2023-02-02T16:54:17.183Z,7.71
2023-02-02T16:56:51.395Z,7.75
2023-02-02T16:59:26.425Z,7.76
2023-02-02T17:02:02.541Z,7.79
2023-02-02T17:04:36.709Z,7.81
2023-02-02T17:07:11.809Z,7.75
2023-02-02T17:09:41.579Z,7.76
2023-02-02T17:12:35.707Z,7.78
2023-02-02T17:15:25.548Z,7.79
2023-02-02T17:17:55.228Z,7.79
2023-02-02T17:20:25.192Z,7.80
2023-02-02T17:22:58.576Z,7.84
2023-02-02T17:25:31.853Z,7.80
2023-02-02T17:28:05.500Z,7.93
2023-02-02T17:30:33.611Z,7.91
2023-02-02T17:33:01.760Z,7.79
2023-02-02T17:35:43.550Z,7.64
2023-02-02T17:38:22.624Z,7.71
2023-02-02T17:40:52.028Z,7.61
2023-02-02T17:43:21.966Z,7.62
2023-02-02T17:45:50.630Z,7.74
2023-02-02T17:48:18.928Z,7.69
2023-02-02T17:50:47.987Z,7.63
2023-02-02T17:53:18.278Z,7.56
2023-02-02T17:55:47.682Z,7.67
2023-02-02T17:58:19.842Z,7.71
2023-02-02T18:00:54.610Z,7.78
2023-02-02T18:03:26.323Z,7.83
2023-02-02T18:05:54.765Z,7.77
2023-02-02T18:08:23.083Z,7.78
2023-02-02T18:10:51.697Z,7.62
2023-02-02T18:13:22.411Z,7.69
2023-02-02T18:15:55.339Z,7.56
2023-02-02T18:18:23.940Z,7.62
2023-02-02T18:20:54.599Z,7.58
2023-02-02T18:23:24.893Z,7.73
2023-02-02T18:25:55.779Z,7.77
2023-02-02T18:28:24.574Z,7.69
2023-02-02T18:30:55.561Z,7.65
2023-02-02T18:33:24.117Z,7.65
2023-02-02T18:35:52.385Z,7.71
2023-02-02T18:38:21.468Z,7.62
2023-02-02T18:40:57.584Z,7.53
2023-02-02T18:43:26.098Z,7.60
2023-02-02T18:46:01.973Z,7.72
2023-02-02T18:48:31.753Z,7.71
2023-02-02T18:51:00.206Z,7.54
2023-02-02T18:53:28.722Z,7.67
2023-02-02T18:55:59.122Z,7.56
2023-02-02T18:58:27.841Z,7.60
2023-02-02T19:00:56.003Z,7.65
2023-02-02T19:03:26.097Z,7.55
2023-02-02T19:06:11.660Z,7.60
2023-02-02T19:08:39.914Z,7.69
2023-02-02T19:11:18.375Z,7.57
2023-02-02T19:13:48.079Z,7.68
2023-02-02T19:16:23.353Z,7.62
2023-02-02T19:19:02.365Z,7.69
2023-02-02T19:21:32.472Z,7.61
2023-02-02T19:24:01.145Z,7.56
2023-02-02T19:26:30.720Z,7.58
2023-02-02T19:29:07.432Z,7.69
2023-02-02T19:31:37.339Z,7.54
2023-02-02T19:34:13.720Z,7.44
2023-02-02T19:36:46.958Z,7.42
2023-02-02T19:39:23.407Z,7.53
2023-02-02T19:41:53.608Z,7.53
2023-02-02T19:44:25.836Z,7.47
2023-02-02T19:46:56.963Z,7.52
2023-02-02T19:49:32.631Z,7.43
2023-02-02T19:52:03.890Z,7.40
2023-02-02T19:54:35.801Z,7.46
2023-02-02T19:57:17.325Z,7.55
2023-02-02T19:59:50.930Z,7.38
2023-02-02T20:02:52.304Z,7.47
2023-02-02T20:05:24.039Z,7.49
2023-02-02T20:07:57.376Z,7.49
2023-02-02T20:10:27.747Z,7.32
2023-02-02T20:12:56.699Z,7.46
2023-02-02T20:15:34.836Z,7.39
2023-02-02T20:18:09.620Z,7.56
2023-02-02T20:20:43.217Z,7.44
2023-02-02T20:23:34.257Z,7.60
2023-02-02T20:26:05.179Z,7.57
2023-02-02T20:28:43.624Z,7.49
2023-02-02T20:31:16.500Z,7.55
2023-02-02T20:33:47.579Z,7.53
2023-02-02T20:36:33.923Z,7.56
2023-02-02T20:39:28.539Z,7.58
2023-02-02T20:41:59.428Z,7.30
2023-02-02T20:44:29.489Z,7.46
2023-02-02T20:47:00.428Z,7.52
2023-02-02T20:49:31.969Z,7.56
2023-02-02T20:52:04.493Z,7.54
2023-02-02T20:54:34.457Z,7.54
2023-02-02T20:57:05.842Z,7.40
2023-02-02T20:59:34.053Z,7.53
2023-02-02T21:02:02.513Z,7.47
2023-02-02T21:04:31.035Z,7.51
2023-02-02T21:07:02.278Z,7.55
2023-02-02T21:09:34.525Z,7.51
2023-02-02T21:12:02.929Z,7.44
2023-02-02T21:14:31.264Z,7.52
2023-02-02T21:17:13.891Z,7.40
2023-02-02T21:19:43.221Z,7.32
2023-02-02T21:22:12.029Z,7.39
2023-02-02T21:24:42.841Z,7.47
2023-02-02T21:27:12.279Z,7.30
2023-02-02T21:29:40.310Z,7.21
2023-02-02T21:32:09.537Z,7.14
2023-02-02T21:34:38.452Z,7.30
2023-02-02T21:37:13.781Z,7.28
2023-02-02T21:39:48.765Z,7.32
2023-02-02T21:42:22.016Z,7.24
2023-02-02T21:44:54.356Z,7.30
2023-02-02T21:47:31.879Z,7.27
2023-02-02T21:50:18.375Z,7.39
2023-02-02T21:52:47.501Z,7.24
2023-02-02T21:55:32.952Z,7.28
2023-02-02T21:58:02.571Z,7.36
2023-02-02T22:00:38.371Z,7.37
2023-02-02T22:03:35.212Z,7.36
2023-02-02T22:06:25.470Z,7.44
2023-02-02T22:08:55.944Z,7.41
2023-02-02T22:11:30.005Z,7.45
2023-02-02T22:14:14.120Z,7.47
2023-02-02T22:16:48.790Z,7.50
2023-02-02T22:19:31.313Z,7.39
2023-02-02T22:22:19.872Z,7.39
2023-02-02T22:24:53.837Z,7.44
2023-02-02T22:27:26.274Z,7.61
2023-02-02T22:29:59.778Z,7.59
2023-02-02T22:32:28.101Z,7.44
2023-02-02T22:34:56.395Z,7.55
2023-02-02T22:37:24.621Z,7.43
2023-02-02T22:39:54.008Z,7.58
2023-02-02T22:42:23.772Z,7.47
2023-02-02T22:44:52.145Z,7.42
2023-02-02T22:47:20.448Z,7.58
2023-02-02T22:49:48.674Z,7.59
2023-02-02T22:52:17.386Z,7.58
2023-02-02T22:54:45.820Z,7.60
2023-02-02T22:57:14.238Z,7.65
2023-02-02T22:59:43.986Z,7.61
2023-02-02T23:02:12.668Z,7.66
2023-02-02T23:04:40.854Z,7.50
2023-02-02T23:07:09.182Z,7.67
2023-02-02T23:09:37.473Z,7.62
2023-02-02T23:12:06.278Z,7.55
2023-02-02T23:14:34.899Z,7.61
2023-02-02T23:17:04.460Z,7.61
2023-02-02T23:19:35.076Z,7.61
2023-02-02T23:22:03.587Z,7.62
2023-02-02T23:24:32.052Z,7.69
2023-02-02T23:27:00.382Z,7.69
2023-02-02T23:29:30.523Z,7.71
2023-02-02T23:31:59.396Z,7.77
2023-02-02T23:34:29.207Z,7.71
2023-02-02T23:36:57.926Z,7.57
2023-02-02T23:39:26.545Z,7.66
2023-02-02T23:41:54.931Z,7.79
2023-02-02T23:44:23.195Z,7.70
2023-02-02T23:46:52.460Z,7.71
2023-02-02T23:49:21.246Z,7.67
2023-02-02T23:51:51.594Z,7.60
2023-02-02T23:54:20.145Z,7.47
2023-02-02T23:56:48.473Z,7.50
2023-02-02T23:59:16.773Z,7.49
